createdAt,value
2023-01-10T00:01:08.966Z,4.60
2023-01-10T00:03:37.064Z,4.60
2023-01-10T00:06:05.058Z,4.60
2023-01-10T00:08:33.105Z,4.60
2023-01-10T00:11:21.696Z,4.60
2023-01-10T00:13:53.119Z,4.60
2023-01-10T00:16:21.367Z,4.60
2023-01-10T00:18:49.381Z,4.40
2023-01-10T00:21:18.515Z,4.50
2023-01-10T00:23:48.946Z,4.50
2023-01-10T00:26:17.131Z,4.60
2023-01-10T00:28:45.232Z,4.50
2023-01-10T00:31:16.458Z,4.40
2023-01-10T00:33:44.344Z,4.50
2023-01-10T00:36:12.374Z,4.40
2023-01-10T00:38:40.305Z,4.50
2023-01-10T00:41:29.071Z,4.40
2023-01-10T00:43:58.627Z,4.40
2023-01-10T00:46:28.278Z,4.50
2023-01-10T00:48:57.188Z,4.50
2023-01-10T00:51:25.095Z,4.50
2023-01-10T00:53:53.048Z,4.50
2023-01-10T00:56:20.986Z,4.50
2023-01-10T00:58:48.947Z,4.40
2023-01-10T01:01:16.940Z,4.30
2023-01-10T01:03:46.256Z,4.10
2023-01-10T01:06:14.242Z,4.20
2023-01-10T01:08:42.210Z,4.20
2023-01-10T01:11:10.225Z,4.30
2023-01-10T01:13:38.214Z,4.30
2023-01-10T01:16:06.741Z,4.30
2023-01-10T01:18:35.051Z,4.30
2023-01-10T01:21:05.656Z,4.40
2023-01-10T01:23:35.514Z,4.40
2023-01-10T01:26:03.711Z,4.50
2023-01-10T01:28:31.689Z,4.50
2023-01-10T01:30:59.631Z,4.50
2023-01-10T01:33:27.627Z,4.60
2023-01-10T01:35:55.515Z,4.50
2023-01-10T01:38:24.788Z,4.50
2023-01-10T01:40:52.817Z,4.50
2023-01-10T01:43:25.007Z,4.50
2023-01-10T01:45:53.951Z,4.50
2023-01-10T01:48:36.555Z,4.50
2023-01-10T01:51:10.529Z,4.50
2023-01-10T01:53:45.344Z,4.40
2023-01-10T01:56:17.504Z,4.50
2023-01-10T01:58:50.559Z,4.50
2023-01-10T02:01:19.391Z,4.40
2023-01-10T02:03:50.782Z,4.40
2023-01-10T02:06:20.275Z,4.40
2023-01-10T02:08:54.591Z,4.50
2023-01-10T02:11:22.583Z,4.50
2023-01-10T02:13:51.820Z,4.50
2023-01-10T02:16:19.909Z,4.40
2023-01-10T02:18:47.862Z,4.50
2023-01-10T02:21:42.186Z,4.50
2023-01-10T02:24:49.552Z,4.50
2023-01-10T02:27:26.439Z,4.50
2023-01-10T02:30:34.707Z,4.50
2023-01-10T02:33:12.003Z,4.50
2023-01-10T02:36:02.362Z,4.50
2023-01-10T02:38:39.878Z,4.50
2023-01-10T02:41:16.179Z,4.50
2023-01-10T02:43:51.562Z,4.60
2023-01-10T02:46:25.304Z,4.60
2023-01-10T02:48:55.698Z,4.60
2023-01-10T02:51:27.093Z,4.50
2023-01-10T02:54:01.806Z,4.50
2023-01-10T02:56:54.323Z,4.60
2023-01-10T02:59:45.555Z,4.60
2023-01-10T03:02:24.805Z,4.70
2023-01-10T03:05:02.887Z,4.60
2023-01-10T03:07:36.838Z,4.60
2023-01-10T03:10:10.208Z,4.70
2023-01-10T03:12:43.891Z,4.70
2023-01-10T03:15:14.999Z,4.80
2023-01-10T03:17:44.416Z,4.70
2023-01-10T03:20:14.689Z,4.70
2023-01-10T03:22:43.601Z,4.70
2023-01-10T03:25:15.542Z,4.70
2023-01-10T03:27:50.100Z,4.70
2023-01-10T03:30:25.423Z,4.70
2023-01-10T03:32:54.090Z,4.70
2023-01-10T03:35:25.432Z,4.60
2023-01-10T03:37:58.555Z,4.60
2023-01-10T03:40:36.807Z,4.60
2023-01-10T03:43:28.660Z,4.60
2023-01-10T03:46:01.799Z,4.60
2023-01-10T03:48:34.171Z,4.60
2023-01-10T03:51:06.274Z,4.70
2023-01-10T03:53:35.598Z,4.70
2023-01-10T03:56:03.590Z,4.70
2023-01-10T03:58:31.694Z,4.70
2023-01-10T04:00:59.937Z,4.70
2023-01-10T04:03:28.074Z,4.70
2023-01-10T04:05:56.016Z,4.70
2023-01-10T04:08:25.249Z,4.70
2023-01-10T04:10:53.207Z,4.60
2023-01-10T04:13:21.275Z,4.60
2023-01-10T04:15:49.385Z,4.60
2023-01-10T04:18:17.422Z,4.70
2023-01-10T04:20:45.358Z,4.60
2023-01-10T04:23:13.331Z,4.70
2023-01-10T04:25:42.670Z,4.70
2023-01-10T04:28:10.661Z,4.60
2023-01-10T04:30:38.586Z,4.60
2023-01-10T04:33:07.247Z,4.60
2023-01-10T04:35:35.583Z,4.60
2023-01-10T04:38:03.626Z,4.50
2023-01-10T04:40:31.524Z,4.60
2023-01-10T04:43:01.012Z,4.60
2023-01-10T04:45:29.041Z,4.60
2023-01-10T04:47:57.002Z,4.50
2023-01-10T04:50:25.025Z,4.50
2023-01-10T04:52:52.993Z,4.50
2023-01-10T04:55:21.093Z,4.50
2023-01-10T04:57:49.118Z,4.50
2023-01-10T05:00:19.150Z,4.50
2023-01-10T05:02:47.219Z,4.40
2023-01-10T05:05:15.630Z,4.40
2023-01-10T05:07:47.279Z,4.40
2023-01-10T05:10:15.816Z,4.50
2023-01-10T05:12:43.876Z,4.50
2023-01-10T05:15:12.582Z,4.50
2023-01-10T05:17:41.932Z,4.40
2023-01-10T05:20:11.171Z,4.40
2023-01-10T05:22:39.076Z,4.50
2023-01-10T05:25:07.806Z,4.50
2023-01-10T05:27:35.689Z,4.60
2023-01-10T05:30:03.740Z,4.60
2023-01-10T05:32:31.769Z,4.50
2023-01-10T05:35:01.164Z,4.60
2023-01-10T05:37:29.170Z,4.60
2023-01-10T05:39:57.218Z,4.70
2023-01-10T05:42:25.183Z,4.60
2023-01-10T05:44:53.280Z,4.70
2023-01-10T05:47:21.292Z,4.60
2023-01-10T05:49:49.203Z,4.60
2023-01-10T05:52:18.499Z,4.50
2023-01-10T05:54:46.445Z,4.60
2023-01-10T05:57:14.694Z,4.50
2023-01-10T05:59:42.675Z,4.50
2023-01-10T06:02:10.717Z,4.60
2023-01-10T06:04:38.829Z,4.60
2023-01-10T06:07:06.731Z,4.60
2023-01-10T06:09:36.105Z,4.60
2023-01-10T06:12:04.188Z,4.60
2023-01-10T06:14:32.089Z,4.60
2023-01-10T06:17:00.118Z,4.60
2023-01-10T06:19:28.008Z,4.50
2023-01-10T06:21:55.964Z,4.50
2023-01-10T06:24:24.014Z,4.50
2023-01-10T06:26:53.320Z,4.50
2023-01-10T06:29:21.256Z,4.40
2023-01-10T06:31:49.226Z,4.40
2023-01-10T06:34:17.177Z,4.40
2023-01-10T06:36:45.269Z,4.50
2023-01-10T06:39:13.355Z,4.40
2023-01-10T06:41:41.347Z,4.40
2023-01-10T06:44:10.888Z,4.40
2023-01-10T06:46:38.870Z,4.50
2023-01-10T06:49:06.805Z,4.40
2023-01-10T06:51:34.755Z,4.40
2023-01-10T06:54:02.693Z,4.50
2023-01-10T06:56:30.836Z,4.50
2023-01-10T06:58:58.777Z,4.50
2023-01-10T07:01:28.217Z,4.40
2023-01-10T07:03:56.399Z,4.40
2023-01-10T07:06:24.488Z,4.30
2023-01-10T07:08:52.467Z,4.40
2023-01-10T07:11:20.446Z,4.40
2023-01-10T07:13:48.450Z,4.30
2023-01-10T07:16:17.425Z,4.40
2023-01-10T07:18:46.804Z,4.40
2023-01-10T07:21:16.797Z,4.50
2023-01-10T07:23:44.814Z,4.40
2023-01-10T07:26:17.523Z,4.40
2023-01-10T07:28:45.966Z,4.40
2023-01-10T07:31:14.704Z,4.40
2023-01-10T07:33:42.708Z,4.40
2023-01-10T07:36:12.486Z,4.40
2023-01-10T07:38:40.562Z,4.40
2023-01-10T07:41:08.524Z,4.40
2023-01-10T07:43:36.949Z,4.40
2023-01-10T07:46:09.552Z,4.40
2023-01-10T07:48:38.103Z,4.40
2023-01-10T07:51:07.164Z,4.40
2023-01-10T07:53:36.617Z,4.40
2023-01-10T07:56:05.392Z,4.40
2023-01-10T07:58:34.064Z,4.40
2023-01-10T08:01:03.402Z,4.50
2023-01-10T08:03:33.143Z,4.50
2023-01-10T08:06:02.464Z,4.40
2023-01-10T08:08:30.686Z,4.40
2023-01-10T08:11:02.460Z,4.40
2023-01-10T08:13:30.552Z,4.40
2023-01-10T08:15:58.892Z,4.40
2023-01-10T08:18:27.862Z,4.30
2023-01-10T08:20:56.481Z,4.40
2023-01-10T08:23:24.481Z,4.30
2023-01-10T08:25:52.834Z,4.30
2023-01-10T08:28:22.352Z,4.30
2023-01-10T08:30:55.329Z,4.30
2023-01-10T08:33:24.475Z,4.30
2023-01-10T08:35:53.080Z,4.30
2023-01-10T08:38:21.099Z,4.40
2023-01-10T08:40:49.038Z,4.40
2023-01-10T08:43:17.039Z,4.40
2023-01-10T08:45:47.161Z,4.40
2023-01-10T08:48:15.269Z,4.40
2023-01-10T08:50:43.151Z,4.50
2023-01-10T08:53:11.057Z,4.50
2023-01-10T08:55:39.027Z,4.50
2023-01-10T08:58:06.942Z,4.50
2023-01-10T09:00:34.897Z,4.50
2023-01-10T09:03:08.592Z,4.50
2023-01-10T09:05:36.637Z,4.50
2023-01-10T09:08:05.643Z,4.50
2023-01-10T09:10:33.660Z,4.50
2023-01-10T09:13:02.063Z,4.50
2023-01-10T09:15:32.695Z,4.50
2023-01-10T09:18:02.385Z,4.60
2023-01-10T09:20:32.890Z,4.50
2023-01-10T09:23:05.390Z,4.50
2023-01-10T09:25:33.341Z,4.60
2023-01-10T09:28:02.602Z,4.60
2023-01-10T09:30:31.868Z,4.60
2023-01-10T09:33:00.003Z,4.60
2023-01-10T09:35:29.753Z,4.70
2023-01-10T09:38:01.090Z,4.60
2023-01-10T09:40:41.003Z,4.60
2023-01-10T09:43:16.766Z,4.70
2023-01-10T09:45:52.904Z,4.70
2023-01-10T09:48:28.052Z,4.80
2023-01-10T09:51:14.112Z,4.80
2023-01-10T09:53:45.793Z,4.70
2023-01-10T09:56:16.255Z,4.70
2023-01-10T09:58:45.779Z,4.70
2023-01-10T10:01:18.045Z,4.70
2023-01-10T10:03:53.418Z,4.80
2023-01-10T10:06:23.731Z,4.80
2023-01-10T10:08:54.063Z,4.80
2023-01-10T10:11:46.784Z,4.80
2023-01-10T10:14:30.056Z,4.80
2023-01-10T10:17:15.807Z,4.90
2023-01-10T10:19:58.116Z,5.00
2023-01-10T10:22:35.579Z,5.10
2023-01-10T10:25:18.305Z,5.10
2023-01-10T10:28:02.216Z,5.00
2023-01-10T10:30:43.370Z,5.00
2023-01-10T10:33:34.888Z,5.10
2023-01-10T10:36:05.858Z,5.00
2023-01-10T10:38:38.749Z,4.90
2023-01-10T10:41:17.013Z,4.90
2023-01-10T10:43:48.278Z,4.80
2023-01-10T10:46:20.141Z,4.70
2023-01-10T10:48:54.617Z,4.80
2023-01-10T10:51:27.641Z,4.80
2023-01-10T10:53:57.549Z,4.80
2023-01-10T10:56:28.318Z,4.70
2023-01-10T10:58:59.503Z,4.70
2023-01-10T11:01:28.021Z,4.70
2023-01-10T11:03:59.259Z,4.70
2023-01-10T11:06:29.607Z,4.70
2023-01-10T11:08:59.765Z,4.70
2023-01-10T11:11:31.512Z,4.70
2023-01-10T11:14:01.024Z,4.70
2023-01-10T11:16:31.742Z,4.70
2023-01-10T11:19:20.256Z,4.70
2023-01-10T11:21:53.055Z,4.70
2023-01-10T11:24:33.586Z,4.70
2023-01-10T11:27:05.610Z,4.80
2023-01-10T11:29:39.982Z,4.90
2023-01-10T11:32:15.272Z,4.90
2023-01-10T11:34:49.591Z,4.90
2023-01-10T11:37:25.040Z,5.00
2023-01-10T11:40:20.366Z,5.00
2023-01-10T11:42:50.378Z,5.00
2023-01-10T11:45:31.610Z,4.90
2023-01-10T11:48:08.197Z,4.90
2023-01-10T11:50:39.087Z,4.90
2023-01-10T11:53:09.361Z,4.90
2023-01-10T11:55:39.151Z,4.90
2023-01-10T11:58:12.675Z,5.00
2023-01-10T12:00:42.981Z,5.00
2023-01-10T12:03:26.741Z,5.00
2023-01-10T12:05:56.546Z,5.10
2023-01-10T12:08:28.247Z,5.10
2023-01-10T12:11:02.473Z,5.10
2023-01-10T12:13:43.495Z,5.10
2023-01-10T12:16:23.874Z,5.10
2023-01-10T12:18:54.324Z,5.10
2023-01-10T12:21:31.524Z,5.20
2023-01-10T12:24:04.806Z,5.30
2023-01-10T12:26:34.269Z,5.40
2023-01-10T12:29:09.994Z,5.40
2023-01-10T12:31:41.048Z,5.50
2023-01-10T12:34:19.997Z,5.50
2023-01-10T12:36:59.413Z,5.50
2023-01-10T12:39:32.039Z,5.40
2023-01-10T12:42:22.393Z,5.40
2023-01-10T12:44:58.694Z,5.50
2023-01-10T12:47:33.346Z,5.60
2023-01-10T12:50:06.885Z,5.60
2023-01-10T12:52:45.574Z,5.60
2023-01-10T12:55:16.289Z,5.70
2023-01-10T12:57:51.580Z,5.70
2023-01-10T13:00:25.551Z,5.60
2023-01-10T13:02:57.226Z,5.60
2023-01-10T13:05:27.801Z,5.60
2023-01-10T13:08:00.904Z,5.50
2023-01-10T13:10:31.714Z,5.50
2023-01-10T13:13:05.663Z,5.50
2023-01-10T13:15:39.885Z,5.40
2023-01-10T13:18:21.240Z,5.40
2023-01-10T13:20:49.495Z,5.30
2023-01-10T13:23:31.236Z,5.20
2023-01-10T13:26:02.849Z,5.10
2023-01-10T13:28:33.141Z,5.10
2023-01-10T13:31:05.823Z,5.10
2023-01-10T13:33:40.129Z,5.20
2023-01-10T13:36:19.863Z,5.20
2023-01-10T13:38:52.419Z,5.20
2023-01-10T13:41:37.915Z,5.30
2023-01-10T13:44:13.490Z,5.40
2023-01-10T13:46:51.532Z,5.40
2023-01-10T13:49:42.581Z,5.40
2023-01-10T13:52:32.023Z,5.30
2023-01-10T13:55:03.548Z,5.30
2023-01-10T13:57:52.102Z,5.20
2023-01-10T14:00:42.604Z,5.20
2023-01-10T14:03:42.366Z,5.20
2023-01-10T14:06:19.909Z,5.10
2023-01-10T14:08:53.917Z,5.10
2023-01-10T14:11:23.991Z,5.10
2023-01-10T14:13:56.159Z,5.00
2023-01-10T14:16:39.145Z,5.00
2023-01-10T14:19:30.739Z,5.10
2023-01-10T14:22:29.277Z,5.00
2023-01-10T14:25:20.229Z,5.10
2023-01-10T14:27:53.261Z,5.10
2023-01-10T14:30:26.879Z,5.00
2023-01-10T14:32:58.033Z,5.00
2023-01-10T14:35:33.055Z,4.90
2023-01-10T14:38:03.922Z,4.90
2023-01-10T14:40:40.826Z,4.90
2023-01-10T14:43:12.544Z,4.90
2023-01-10T14:45:48.992Z,4.80
2023-01-10T14:48:35.674Z,4.80
2023-01-10T14:51:27.133Z,4.70
2023-01-10T14:54:01.344Z,4.70
2023-01-10T14:56:31.510Z,4.80
2023-01-10T14:58:59.558Z,4.70
2023-01-10T15:01:30.886Z,4.70
2023-01-10T15:03:59.118Z,4.70
2023-01-10T15:06:28.569Z,4.60
2023-01-10T15:09:03.726Z,4.60
2023-01-10T15:11:32.917Z,4.60
2023-01-10T15:14:07.477Z,4.70
2023-01-10T15:16:37.054Z,4.60
2023-01-10T15:19:05.303Z,4.60
2023-01-10T15:21:34.760Z,4.60
2023-01-10T15:24:22.877Z,4.40
2023-01-10T15:26:53.026Z,4.50
2023-01-10T15:29:25.210Z,4.50
2023-01-10T15:31:55.463Z,4.60
2023-01-10T15:34:27.559Z,4.60
2023-01-10T15:36:59.517Z,4.70
2023-01-10T15:39:30.372Z,4.80
2023-01-10T15:42:01.099Z,5.00
2023-01-10T15:44:41.043Z,5.10
2023-01-10T15:47:36.341Z,5.20
2023-01-10T15:50:17.881Z,5.20
2023-01-10T15:52:50.847Z,5.20
2023-01-10T15:55:37.790Z,5.20
2023-01-10T15:58:06.677Z,5.20
2023-01-10T16:00:34.881Z,5.10
2023-01-10T16:03:03.300Z,5.20
2023-01-10T16:05:33.391Z,5.10
2023-01-10T16:08:07.891Z,5.10
2023-01-10T16:10:37.307Z,5.10
2023-01-10T16:13:27.780Z,5.10
2023-01-10T16:15:56.796Z,5.00
2023-01-10T16:18:25.320Z,4.90
2023-01-10T16:20:55.939Z,4.80
2023-01-10T16:23:27.867Z,4.70
2023-01-10T16:25:58.576Z,4.60
2023-01-10T16:28:28.948Z,4.60
2023-01-10T16:30:57.074Z,4.50
2023-01-10T16:33:27.762Z,4.50
2023-01-10T16:35:58.227Z,4.50
2023-01-10T16:38:29.995Z,4.50
2023-01-10T16:41:01.228Z,4.40
2023-01-10T16:43:29.329Z,4.40
2023-01-10T16:46:00.341Z,4.30
2023-01-10T16:48:30.574Z,4.30
2023-01-10T16:51:07.209Z,4.20
2023-01-10T16:53:36.542Z,4.10
2023-01-10T16:56:04.794Z,4.10
2023-01-10T16:58:33.991Z,4.00
2023-01-10T17:01:02.407Z,4.00
2023-01-10T17:03:37.360Z,3.90
2023-01-10T17:06:05.829Z,3.90
2023-01-10T17:08:34.015Z,3.90
2023-01-10T17:11:06.797Z,3.90
2023-01-10T17:13:37.461Z,3.90
2023-01-10T17:16:05.626Z,3.80
2023-01-10T17:18:33.647Z,3.80
2023-01-10T17:21:01.942Z,3.80
2023-01-10T17:23:30.693Z,3.70
2023-01-10T17:26:04.978Z,3.70
2023-01-10T17:28:33.244Z,3.60
2023-01-10T17:31:02.193Z,3.60
2023-01-10T17:33:31.050Z,3.60
2023-01-10T17:35:59.018Z,3.60
2023-01-10T17:38:28.454Z,3.50
2023-01-10T17:41:01.861Z,3.50
2023-01-10T17:43:31.894Z,3.50
2023-01-10T17:46:00.527Z,3.70
2023-01-10T17:48:28.660Z,3.80
2023-01-10T17:50:58.447Z,3.90
2023-01-10T17:53:26.561Z,4.00
2023-01-10T17:56:03.178Z,4.10
2023-01-10T17:58:32.785Z,4.20
2023-01-10T18:01:00.842Z,4.30
2023-01-10T18:03:29.258Z,4.30
2023-01-10T18:05:58.959Z,4.40
2023-01-10T18:08:27.817Z,4.40
2023-01-10T18:11:00.285Z,4.40
2023-01-10T18:13:30.832Z,4.50
2023-01-10T18:16:01.393Z,4.40
2023-01-10T18:18:30.273Z,4.40
2023-01-10T18:21:03.029Z,4.40
2023-01-10T18:23:31.826Z,4.50
2023-01-10T18:26:01.954Z,4.40
2023-01-10T18:28:40.482Z,4.40
2023-01-10T18:31:12.518Z,4.40
2023-01-10T18:33:41.121Z,4.50
2023-01-10T18:36:14.161Z,4.50
2023-01-10T18:38:42.553Z,4.40
2023-01-10T18:41:11.031Z,4.50
2023-01-10T18:43:39.226Z,4.50
2023-01-10T18:46:11.940Z,4.50
2023-01-10T18:48:40.411Z,4.50
2023-01-10T18:51:12.583Z,4.40
2023-01-10T18:53:41.258Z,4.40
2023-01-10T18:56:10.529Z,4.40
2023-01-10T18:58:40.311Z,4.40
2023-01-10T19:01:12.248Z,4.30
2023-01-10T19:03:40.562Z,4.30
2023-01-10T19:06:11.573Z,4.30
2023-01-10T19:08:40.168Z,4.30
2023-01-10T19:11:14.539Z,4.40
2023-01-10T19:13:43.327Z,4.40
2023-01-10T19:16:14.740Z,4.40
2023-01-10T19:18:43.595Z,4.30
2023-01-10T19:21:15.503Z,4.30
2023-01-10T19:23:46.672Z,4.20
2023-01-10T19:26:15.263Z,4.20
2023-01-10T19:28:43.625Z,4.20
2023-01-10T19:31:18.577Z,4.20
2023-01-10T19:33:48.381Z,4.20
2023-01-10T19:36:16.744Z,4.20
2023-01-10T19:38:45.021Z,4.20
2023-01-10T19:41:14.031Z,4.20
2023-01-10T19:43:42.996Z,4.20
2023-01-10T19:46:12.931Z,4.10
2023-01-10T19:48:42.490Z,4.10
2023-01-10T19:51:12.628Z,4.10
2023-01-10T19:53:45.516Z,4.10
2023-01-10T19:56:18.389Z,4.10
2023-01-10T19:58:47.719Z,4.10
2023-01-10T20:01:17.832Z,4.10
2023-01-10T20:03:48.140Z,4.20
2023-01-10T20:06:18.318Z,4.10
2023-01-10T20:08:47.675Z,4.10
2023-01-10T20:11:16.872Z,4.20
2023-01-10T20:13:45.774Z,4.10
2023-01-10T20:16:15.645Z,4.10
2023-01-10T20:18:44.108Z,4.10
2023-01-10T20:21:16.761Z,4.10
2023-01-10T20:23:46.214Z,4.10
2023-01-10T20:26:16.306Z,4.10
2023-01-10T20:28:45.685Z,4.10
2023-01-10T20:31:15.932Z,4.10
2023-01-10T20:33:44.812Z,4.10
2023-01-10T20:36:16.522Z,4.10
2023-01-10T20:38:45.080Z,4.10
2023-01-10T20:41:16.174Z,4.20
2023-01-10T20:43:45.313Z,4.10
2023-01-10T20:46:16.646Z,4.20
2023-01-10T20:48:47.284Z,4.20
2023-01-10T20:51:19.336Z,4.20
2023-01-10T20:53:47.584Z,4.20
2023-01-10T20:56:17.136Z,4.20
2023-01-10T20:58:45.217Z,4.10
2023-01-10T21:01:24.943Z,4.20
2023-01-10T21:04:01.257Z,4.20
2023-01-10T21:06:30.655Z,4.20
2023-01-10T21:08:58.777Z,4.20
2023-01-10T21:11:26.837Z,4.20
2023-01-10T21:13:54.861Z,4.20
2023-01-10T21:16:24.184Z,4.20
2023-01-10T21:18:52.393Z,4.20
2023-01-10T21:21:23.333Z,4.20
2023-01-10T21:23:54.797Z,4.20
2023-01-10T21:26:23.224Z,4.20
2023-01-10T21:28:51.287Z,4.20
2023-01-10T21:31:21.491Z,4.30
2023-01-10T21:33:50.131Z,4.30
2023-01-10T21:36:18.559Z,4.30
2023-01-10T21:38:46.686Z,4.30
2023-01-10T21:41:39.285Z,4.30
2023-01-10T21:44:08.400Z,4.30
2023-01-10T21:46:36.751Z,4.30
2023-01-10T21:49:05.883Z,4.30
2023-01-10T21:51:34.202Z,4.30
2023-01-10T21:54:02.336Z,4.30
2023-01-10T21:56:31.873Z,4.30
2023-01-10T21:58:59.958Z,4.30
2023-01-10T22:01:27.929Z,4.30
2023-01-10T22:03:56.019Z,4.20
2023-01-10T22:06:24.038Z,4.30
2023-01-10T22:08:52.912Z,4.20
2023-01-10T22:11:21.064Z,4.20
2023-01-10T22:13:51.884Z,4.20
2023-01-10T22:16:19.984Z,4.20
2023-01-10T22:18:48.966Z,4.20
2023-01-10T22:21:19.607Z,4.20
2023-01-10T22:23:47.620Z,4.10
2023-01-10T22:26:17.183Z,4.00
2023-01-10T22:28:45.178Z,3.90
2023-01-10T22:31:14.926Z,3.80
2023-01-10T22:33:43.106Z,3.80
2023-01-10T22:36:14.985Z,3.70
2023-01-10T22:38:42.996Z,3.60
2023-01-10T22:41:13.070Z,3.60
2023-01-10T22:43:41.026Z,3.60
2023-01-10T22:46:09.668Z,3.50
2023-01-10T22:48:39.341Z,3.50
2023-01-10T22:51:07.658Z,3.50
2023-01-10T22:53:35.875Z,3.40
2023-01-10T22:56:05.660Z,3.40
2023-01-10T22:58:33.915Z,3.30
2023-01-10T23:01:04.130Z,3.30
2023-01-10T23:03:32.129Z,3.20
2023-01-10T23:06:01.620Z,3.20
2023-01-10T23:08:29.649Z,3.20
2023-01-10T23:10:57.635Z,3.20
2023-01-10T23:13:26.130Z,3.20
2023-01-10T23:15:58.033Z,3.20
2023-01-10T23:18:26.418Z,3.20
2023-01-10T23:20:54.793Z,3.20
2023-01-10T23:23:24.371Z,3.20
2023-01-10T23:26:02.345Z,3.20
2023-01-10T23:28:31.158Z,3.30
2023-01-10T23:30:59.220Z,3.30
2023-01-10T23:33:27.314Z,3.30
2023-01-10T23:35:55.318Z,3.30
2023-01-10T23:38:24.916Z,3.30
2023-01-10T23:40:53.139Z,3.30
2023-01-10T23:43:21.233Z,3.30
2023-01-10T23:45:49.118Z,3.40
2023-01-10T23:48:17.303Z,3.40
2023-01-10T23:50:47.154Z,3.40
2023-01-10T23:53:15.238Z,3.50
2023-01-10T23:55:44.620Z,3.60
2023-01-10T23:58:12.732Z,3.50
